sensor_id;sensor_type;location;lat;lon;timestamp;pressure;altitude;pressure_sealevel;temperature;humidity
65280;BME280;51878;55.748;48.742;2022-09-09T00:03:47;98818.25;;;7.33;100.00
65280;BME280;51878;55.748;48.742;2022-09-09T00:06:26;98830.09;;;7.47;100.00
65280;BME280;51878;55.748;48.742;2022-09-09T00:11:52;98904.50;;;7.79;100.00
65280;BME280;51878;55.748;48.742;2022-09-09T00:14:35;98884.44;;;7.59;100.00
65280;BME280;51878;55.748;48.742;2022-09-09T00:17:12;98826.22;;;7.27;100.00
65280;BME280;51878;55.748;48.742;2022-09-09T00:20:01;98909.56;;;7.59;100.00
65280;BME280;51878;55.748;48.742;2022-09-09T00:22:32;98905.84;;;7.60;100.00
65280;BME280;51878;55.748;48.742;2022-09-09T00:25:12;98906.59;;;7.69;100.00
65280;BME280;51878;55.748;48.742;2022-09-09T00:27:50;98829.56;;;7.29;100.00
65280;BME280;51878;55.748;48.742;2022-09-09T00:30:26;98897.56;;;7.62;100.00
65280;BME280;51878;55.748;48.742;2022-09-09T00:33:16;98893.44;;;7.51;100.00
65280;BME280;51878;55.748;48.742;2022-09-09T00:35:48;98837.66;;;7.29;100.00
65280;BME280;51878;55.748;48.742;2022-09-09T00:43:39;98912.44;;;7.58;100.00
65280;BME280;51878;55.748;48.742;2022-09-09T00:52:25;98911.00;;;7.70;100.00
65280;BME280;51878;55.748;48.742;2022-09-09T00:55:07;98922.34;;;7.80;100.00
65280;BME280;51878;55.748;48.742;2022-09-09T00:57:39;98853.59;;;7.38;100.00
65280;BME280;51878;55.748;48.742;2022-09-09T01:03:18;98925.25;;;7.79;100.00
65280;BME280;51878;55.748;48.742;2022-09-09T01:28:03;98870.78;;;7.14;100.00
65280;BME280;51878;55.748;48.742;2022-09-09T01:30:35;98912.44;;;7.35;100.00
65280;BME280;51878;55.748;48.742;2022-09-09T01:33:03;98944.13;;;7.56;100.00
65280;BME280;51878;55.748;48.742;2022-09-09T01:35:46;98933.34;;;7.56;100.00
65280;BME280;51878;55.748;48.742;2022-09-09T01:38:17;98936.41;;;7.53;100.00
65280;BME280;51878;55.748;48.742;2022-09-09T01:40:45;98837.81;;;6.81;100.00
65280;BME280;51878;55.748;48.742;2022-09-09T01:43:12;98939.81;;;7.47;100.00
65280;BME280;51878;55.748;48.742;2022-09-09T01:45:41;98922.75;;;7.31;100.00
65280;BME280;51878;55.748;48.742;2022-09-09T01:48:10;98909.31;;;7.23;100.00
65280;BME280;51878;55.748;48.742;2022-09-09T01:50:37;98896.31;;;7.27;100.00
65280;BME280;51878;55.748;48.742;2022-09-09T01:53:04;98860.28;;;6.96;100.00
65280;BME280;51878;55.748;48.742;2022-09-09T01:55:36;98952.69;;;7.36;100.00
65280;BME280;51878;55.748;48.742;2022-09-09T02:00:46;98843.06;;;6.74;100.00
65280;BME280;51878;55.748;48.742;2022-09-09T02:03:25;98823.56;;;6.72;100.00
65280;BME280;51878;55.748;48.742;2022-09-09T02:06:10;98943.84;;;7.28;100.00
65280;BME280;51878;55.748;48.742;2022-09-09T02:08:49;98884.88;;;7.01;100.00
65280;BME280;51878;55.748;48.742;2022-09-09T02:11:18;98893.38;;;7.13;100.00
65280;BME280;51878;55.748;48.742;2022-09-09T02:13:48;98949.50;;;7.41;100.00
65280;BME280;51878;55.748;48.742;2022-09-09T02:16:26;98956.41;;;7.58;100.00
65280;BME280;51878;55.748;48.742;2022-09-09T02:21:30;98941.91;;;7.36;100.00
65280;BME280;51878;55.748;48.742;2022-09-09T02:24:02;98809.41;;;6.47;100.00
65280;BME280;51878;55.748;48.742;2022-09-09T02:26:32;98947.72;;;7.25;100.00
65280;BME280;51878;55.748;48.742;2022-09-09T02:29:02;98955.88;;;7.40;100.00
65280;BME280;51878;55.748;48.742;2022-09-09T02:31:30;98949.84;;;7.38;100.00
65280;BME280;51878;55.748;48.742;2022-09-09T02:34:01;98953.97;;;7.49;100.00
65280;BME280;51878;55.748;48.742;2022-09-09T02:36:32;98952.47;;;7.46;100.00
65280;BME280;51878;55.748;48.742;2022-09-09T02:39:01;98964.16;;;7.38;100.00
65280;BME280;51878;55.748;48.742;2022-09-09T02:41:36;98901.28;;;7.15;100.00
65280;BME280;51878;55.748;48.742;2022-09-09T02:44:15;98908.34;;;7.16;100.00
65280;BME280;51878;55.748;48.742;2022-09-09T02:52:14;98983.34;;;7.43;100.00
65280;BME280;51878;55.748;48.742;2022-09-09T02:54:44;98982.66;;;7.50;100.00
65280;BME280;51878;55.748;48.742;2022-09-09T02:57:19;98971.06;;;7.41;100.00
65280;BME280;51878;55.748;48.742;2022-09-09T02:59:50;98973.44;;;7.36;100.00
65280;BME280;51878;55.748;48.742;2022-09-09T03:02:18;98927.88;;;7.18;100.00
65280;BME280;51878;55.748;48.742;2022-09-09T03:04:45;98884.59;;;6.88;100.00
65280;BME280;51878;55.748;48.742;2022-09-09T03:07:19;98923.81;;;7.22;100.00
65280;BME280;51878;55.748;48.742;2022-09-09T03:09:46;98999.63;;;7.81;100.00
65280;BME280;51878;55.748;48.742;2022-09-09T03:12:13;98993.19;;;7.82;100.00
65280;BME280;51878;55.748;48.742;2022-09-09T03:14:40;98955.78;;;7.56;100.00
65280;BME280;51878;55.748;48.742;2022-09-09T03:17:07;98994.59;;;7.78;99.99
65280;BME280;51878;55.748;48.742;2022-09-09T03:19:35;99008.97;;;7.94;100.00
65280;BME280;51878;55.748;48.742;2022-09-09T03:22:04;99004.03;;;7.97;99.23
65280;BME280;51878;55.748;48.742;2022-09-09T03:24:31;98970.22;;;7.86;100.00
65280;BME280;51878;55.748;48.742;2022-09-09T03:26:58;98970.91;;;7.65;100.00
65280;BME280;51878;55.748;48.742;2022-09-09T03:29:25;98976.75;;;7.69;100.00
65280;BME280;51878;55.748;48.742;2022-09-09T03:31:52;98947.63;;;7.64;100.00
65280;BME280;51878;55.748;48.742;2022-09-09T03:34:19;98971.34;;;7.69;100.00
65280;BME280;51878;55.748;48.742;2022-09-09T03:36:46;98936.78;;;7.50;100.00
65280;BME280;51878;55.748;48.742;2022-09-09T03:39:15;98867.97;;;7.08;100.00
65280;BME280;51878;55.748;48.742;2022-09-09T03:41:42;99008.66;;;7.89;100.00
65280;BME280;51878;55.748;48.742;2022-09-09T03:44:12;99019.22;;;7.98;100.00
65280;BME280;51878;55.748;48.742;2022-09-09T03:46:39;98945.84;;;7.57;100.00
65280;BME280;51878;55.748;48.742;2022-09-09T03:49:06;98959.28;;;7.65;100.00
65280;BME280;51878;55.748;48.742;2022-09-09T03:51:33;98979.41;;;8.00;100.00
65280;BME280;51878;55.748;48.742;2022-09-09T03:54:03;99014.22;;;8.10;100.00
65280;BME280;51878;55.748;48.742;2022-09-09T03:56:31;99016.13;;;8.24;100.00
65280;BME280;51878;55.748;48.742;2022-09-09T03:58:58;98973.41;;;7.90;100.00
65280;BME280;51878;55.748;48.742;2022-09-09T04:01:26;99008.41;;;8.21;100.00
65280;BME280;51878;55.748;48.742;2022-09-09T04:03:53;98994.91;;;8.21;100.00
65280;BME280;51878;55.748;48.742;2022-09-09T04:06:21;99036.72;;;8.25;99.27
65280;BME280;51878;55.748;48.742;2022-09-09T04:08:49;98981.09;;;7.78;100.00
65280;BME280;51878;55.748;48.742;2022-09-09T04:11:16;99030.28;;;8.26;100.00
65280;BME280;51878;55.748;48.742;2022-09-09T04:13:43;98968.19;;;7.89;98.62
65280;BME280;51878;55.748;48.742;2022-09-09T04:16:12;98973.78;;;8.02;97.87
65280;BME280;51878;55.748;48.742;2022-09-09T04:18:42;98992.81;;;8.08;98.14
65280;BME280;51878;55.748;48.742;2022-09-09T04:21:10;99033.44;;;8.53;98.93
65280;BME280;51878;55.748;48.742;2022-09-09T04:23:39;99031.53;;;8.39;98.61
65280;BME280;51878;55.748;48.742;2022-09-09T04:26:06;98979.31;;;8.08;97.34
65280;BME280;51878;55.748;48.742;2022-09-09T04:28:35;99017.44;;;8.28;98.77
65280;BME280;51878;55.748;48.742;2022-09-09T04:31:12;99042.84;;;8.42;98.04
65280;BME280;51878;55.748;48.742;2022-09-09T04:33:41;98934.34;;;7.78;97.95
65280;BME280;51878;55.748;48.742;2022-09-09T04:36:08;99013.72;;;8.30;97.71
65280;BME280;51878;55.748;48.742;2022-09-09T04:38:35;98935.84;;;7.80;96.79
65280;BME280;51878;55.748;48.742;2022-09-09T04:41:03;99004.69;;;8.22;97.61
65280;BME280;51878;55.748;48.742;2022-09-09T04:43:31;99046.97;;;8.68;97.35
65280;BME280;51878;55.748;48.742;2022-09-09T04:45:58;99017.53;;;8.35;96.80
65280;BME280;51878;55.748;48.742;2022-09-09T04:48:28;99038.53;;;8.71;96.19
65280;BME280;51878;55.748;48.742;2022-09-09T04:51:03;98984.94;;;8.60;95.62
65280;BME280;51878;55.748;48.742;2022-09-09T04:53:32;99037.31;;;8.74;95.62
65280;BME280;51878;55.748;48.742;2022-09-09T04:56:11;99072.47;;;9.03;96.47
65280;BME280;51878;55.748;48.742;2022-09-09T04:58:40;98991.06;;;8.98;94.57
65280;BME280;51878;55.748;48.742;2022-09-09T05:01:12;99003.38;;;8.86;96.23
65280;BME280;51878;55.748;48.742;2022-09-09T05:03:39;99062.22;;;9.14;95.30
65280;BME280;51878;55.748;48.742;2022-09-09T05:06:09;98950.81;;;8.44;95.77
65280;BME280;51878;55.748;48.742;2022-09-09T05:08:38;99012.53;;;8.85;96.03
65280;BME280;51878;55.748;48.742;2022-09-09T05:11:20;99006.34;;;8.61;96.59
65280;BME280;51878;55.748;48.742;2022-09-09T05:13:47;99011.59;;;8.25;98.72
65280;BME280;51878;55.748;48.742;2022-09-09T05:16:14;99047.59;;;8.40;99.32
65280;BME280;51878;55.748;48.742;2022-09-09T05:18:42;99078.19;;;8.56;99.82
65280;BME280;51878;55.748;48.742;2022-09-09T05:21:11;99081.25;;;8.53;99.73
65280;BME280;51878;55.748;48.742;2022-09-09T05:23:38;98964.53;;;7.81;98.82
65280;BME280;51878;55.748;48.742;2022-09-09T05:26:08;99094.84;;;8.44;100.00
65280;BME280;51878;55.748;48.742;2022-09-09T05:28:38;99079.88;;;8.34;100.00
65280;BME280;51878;55.748;48.742;2022-09-09T05:31:07;99029.25;;;7.90;100.00
65280;BME280;51878;55.748;48.742;2022-09-09T05:33:42;99072.81;;;8.10;100.00
65280;BME280;51878;55.748;48.742;2022-09-09T05:36:12;99044.19;;;8.00;100.00
65280;BME280;51878;55.748;48.742;2022-09-09T05:38:42;99018.63;;;7.88;100.00
65280;BME280;51878;55.748;48.742;2022-09-09T05:41:11;99103.69;;;8.53;100.00
65280;BME280;51878;55.748;48.742;2022-09-09T05:43:39;99094.03;;;8.36;100.00
65280;BME280;51878;55.748;48.742;2022-09-09T05:46:09;99059.34;;;8.01;100.00
65280;BME280;51878;55.748;48.742;2022-09-09T05:48:39;99045.31;;;7.83;100.00
65280;BME280;51878;55.748;48.742;2022-09-09T05:51:08;99112.88;;;8.44;100.00
65280;BME280;51878;55.748;48.742;2022-09-09T05:53:37;99019.22;;;7.75;100.00
65280;BME280;51878;55.748;48.742;2022-09-09T05:56:07;99121.88;;;8.36;99.72
65280;BME280;51878;55.748;48.742;2022-09-09T05:58:37;99080.34;;;7.91;99.40
65280;BME280;51878;55.748;48.742;2022-09-09T06:01:16;99009.34;;;7.68;99.68
65280;BME280;51878;55.748;48.742;2022-09-09T06:03:45;99122.47;;;8.23;100.00
65280;BME280;51878;55.748;48.742;2022-09-09T06:06:18;99113.00;;;8.27;100.00
65280;BME280;51878;55.748;48.742;2022-09-09T06:08:50;99119.19;;;8.36;99.44
65280;BME280;51878;55.748;48.742;2022-09-09T06:11:20;99122.53;;;8.38;98.71
65280;BME280;51878;55.748;48.742;2022-09-09T06:13:49;99135.50;;;8.66;97.18
65280;BME280;51878;55.748;48.742;2022-09-09T06:16:24;98972.50;;;7.75;96.65
65280;BME280;51878;55.748;48.742;2022-09-09T06:18:56;99069.84;;;8.19;97.42
65280;BME280;51878;55.748;48.742;2022-09-09T06:21:25;99126.16;;;8.54;97.66
65280;BME280;51878;55.748;48.742;2022-09-09T06:23:53;99121.78;;;8.53;97.50
65280;BME280;51878;55.748;48.742;2022-09-09T06:26:30;99121.97;;;8.51;98.37
65280;BME280;51878;55.748;48.742;2022-09-09T06:28:58;99133.25;;;8.55;98.52
65280;BME280;51878;55.748;48.742;2022-09-09T06:31:27;99077.00;;;8.12;98.00
65280;BME280;51878;55.748;48.742;2022-09-09T06:33:58;99145.31;;;8.44;98.86
65280;BME280;51878;55.748;48.742;2022-09-09T06:36:28;99060.59;;;7.91;98.61
65280;BME280;51878;55.748;48.742;2022-09-09T06:38:55;99134.81;;;8.49;97.57
65280;BME280;51878;55.748;48.742;2022-09-09T06:41:24;99096.50;;;8.22;97.06
65280;BME280;51878;55.748;48.742;2022-09-09T06:43:53;99081.97;;;8.23;97.94
65280;BME280;51878;55.748;48.742;2022-09-09T06:46:22;99156.59;;;8.47;98.17
65280;BME280;51878;55.748;48.742;2022-09-09T06:48:50;99146.66;;;8.40;97.13
65280;BME280;51878;55.748;48.742;2022-09-09T06:51:19;99095.47;;;8.00;98.77
65280;BME280;51878;55.748;48.742;2022-09-09T06:53:51;99151.44;;;8.61;97.28
65280;BME280;51878;55.748;48.742;2022-09-09T06:56:21;99163.72;;;8.86;96.93
65280;BME280;51878;55.748;48.742;2022-09-09T06:58:51;99129.25;;;8.88;95.78
65280;BME280;51878;55.748;48.742;2022-09-09T07:01:23;99182.06;;;9.29;94.81
65280;BME280;51878;55.748;48.742;2022-09-09T07:03:53;99098.28;;;8.53;95.27
65280;BME280;51878;55.748;48.742;2022-09-09T07:06:24;99057.72;;;8.15;96.38
65280;BME280;51878;55.748;48.742;2022-09-09T07:08:55;99169.19;;;8.55;95.85
65280;BME280;51878;55.748;48.742;2022-09-09T07:11:29;99182.94;;;8.68;96.70
65280;BME280;51878;55.748;48.742;2022-09-09T07:13:58;99160.13;;;8.48;97.24
65280;BME280;51878;55.748;48.742;2022-09-09T07:16:26;99176.28;;;8.56;96.65
65280;BME280;51878;55.748;48.742;2022-09-09T07:18:54;99184.75;;;8.76;96.65
65280;BME280;51878;55.748;48.742;2022-09-09T07:21:25;99112.66;;;8.54;96.39
65280;BME280;51878;55.748;48.742;2022-09-09T07:23:53;99099.50;;;8.27;95.21
65280;BME280;51878;55.748;48.742;2022-09-09T07:26:24;99187.16;;;9.09;93.34
65280;BME280;51878;55.748;48.742;2022-09-09T07:28:52;99190.22;;;9.44;92.32
65280;BME280;51878;55.748;48.742;2022-09-09T07:31:25;99082.63;;;8.86;92.18
65280;BME280;51878;55.748;48.742;2022-09-09T07:33:53;99148.66;;;9.37;91.32
65280;BME280;51878;55.748;48.742;2022-09-09T07:36:23;99135.09;;;10.18;87.40
65280;BME280;51878;55.748;48.742;2022-09-09T07:38:52;99187.56;;;11.81;81.05
65280;BME280;51878;55.748;48.742;2022-09-09T07:43:49;99200.78;;;11.27;80.45
65280;BME280;51878;55.748;48.742;2022-09-09T07:46:18;99143.22;;;10.54;82.73
65280;BME280;51878;55.748;48.742;2022-09-09T07:48:50;99198.41;;;10.68;82.39
65280;BME280;51878;55.748;48.742;2022-09-09T07:51:24;99193.63;;;10.12;85.19
65280;BME280;51878;55.748;48.742;2022-09-09T07:53:56;99198.31;;;9.88;87.50
65280;BME280;51878;55.748;48.742;2022-09-09T07:56:26;99216.03;;;9.76;88.68
65280;BME280;51878;55.748;48.742;2022-09-09T07:58:54;99212.31;;;9.62;89.67
65280;BME280;51878;55.748;48.742;2022-09-09T08:01:28;99213.16;;;9.78;90.01
65280;BME280;51878;55.748;48.742;2022-09-09T08:04:02;99199.41;;;9.20;90.78
65280;BME280;51878;55.748;48.742;2022-09-09T08:06:31;99158.81;;;9.05;91.01
65280;BME280;51878;55.748;48.742;2022-09-09T08:08:59;99226.69;;;9.63;90.36
65280;BME280;51878;55.748;48.742;2022-09-09T08:11:28;99194.38;;;9.31;89.78
65280;BME280;51878;55.748;48.742;2022-09-09T08:13:56;99162.00;;;9.08;88.91
65280;BME280;51878;55.748;48.742;2022-09-09T08:16:34;99161.91;;;9.17;89.17
65280;BME280;51878;55.748;48.742;2022-09-09T08:19:04;99164.81;;;9.15;88.43
65280;BME280;51878;55.748;48.742;2022-09-09T08:21:32;99244.78;;;9.47;88.90
65280;BME280;51878;55.748;48.742;2022-09-09T08:24:00;99144.91;;;8.93;88.91
65280;BME280;51878;55.748;48.742;2022-09-09T08:26:31;99221.56;;;9.53;88.35
65280;BME280;51878;55.748;48.742;2022-09-09T08:28:59;99228.00;;;9.67;87.60
65280;BME280;51878;55.748;48.742;2022-09-09T08:31:30;99171.06;;;9.45;87.82
65280;BME280;51878;55.748;48.742;2022-09-09T08:33:58;99221.47;;;9.61;88.50
65280;BME280;51878;55.748;48.742;2022-09-09T08:36:34;99169.56;;;9.58;86.69
65280;BME280;51878;55.748;48.742;2022-09-09T08:39:04;99233.31;;;9.60;86.71
65280;BME280;51878;55.748;48.742;2022-09-09T08:49:54;99258.22;;;10.15;85.53
65280;BME280;51878;55.748;48.742;2022-09-09T08:52:31;99126.88;;;9.89;82.65
65280;BME280;51878;55.748;48.742;2022-09-09T08:55:16;99246.19;;;10.32;82.70
65280;BME280;51878;55.748;48.742;2022-09-09T08:57:52;99199.53;;;10.22;81.64
65280;BME280;51878;55.748;48.742;2022-09-09T09:00:20;99263.72;;;10.73;81.25
65280;BME280;51878;55.748;48.742;2022-09-09T09:03:00;99260.16;;;10.51;80.09
65280;BME280;51878;55.748;48.742;2022-09-09T09:05:44;99203.00;;;10.31;80.68
65280;BME280;51878;55.748;48.742;2022-09-09T09:11:15;99203.22;;;10.14;81.92
65280;BME280;51878;55.748;48.742;2022-09-09T09:16:38;99207.81;;;9.99;80.21
65280;BME280;51878;55.748;48.742;2022-09-09T09:19:13;99207.44;;;9.87;81.58
65280;BME280;51878;55.748;48.742;2022-09-09T09:21:58;99280.94;;;10.29;82.41
65280;BME280;51878;55.748;48.742;2022-09-09T09:24:39;99270.59;;;10.32;81.57
65280;BME280;51878;55.748;48.742;2022-09-09T09:27:33;99287.19;;;10.29;81.67
65280;BME280;51878;55.748;48.742;2022-09-09T09:30:22;99292.06;;;10.19;81.54
65280;BME280;51878;55.748;48.742;2022-09-09T09:32:59;99284.47;;;9.85;81.57
65280;BME280;51878;55.748;48.742;2022-09-09T09:35:28;99235.38;;;9.58;81.33
65280;BME280;51878;55.748;48.742;2022-09-09T09:37:55;99289.53;;;9.88;81.20
65280;BME280;51878;55.748;48.742;2022-09-09T09:40:56;99183.59;;;9.61;81.03
65280;BME280;51878;55.748;48.742;2022-09-09T09:43:36;99266.09;;;9.95;80.78
65280;BME280;51878;55.748;48.742;2022-09-09T09:46:04;99279.66;;;10.10;80.73
65280;BME280;51878;55.748;48.742;2022-09-09T09:48:43;99234.44;;;9.96;80.89
65280;BME280;51878;55.748;48.742;2022-09-09T09:51:13;99241.06;;;9.78;80.44
65280;BME280;51878;55.748;48.742;2022-09-09T09:53:42;99248.72;;;10.19;79.01
65280;BME280;51878;55.748;48.742;2022-09-09T09:56:12;99244.38;;;10.25;79.05
65280;BME280;51878;55.748;48.742;2022-09-09T10:01:39;99303.56;;;10.72;76.87
65280;BME280;51878;55.748;48.742;2022-09-09T10:04:21;99193.69;;;10.19;76.86
65280;BME280;51878;55.748;48.742;2022-09-09T10:06:50;99315.25;;;10.73;77.11
65280;BME280;51878;55.748;48.742;2022-09-09T10:18:02;99284.59;;;10.06;79.48
65280;BME280;51878;55.748;48.742;2022-09-09T10:21:10;99318.75;;;10.07;79.69
65280;BME280;51878;55.748;48.742;2022-09-09T10:23:52;99317.19;;;10.13;80.38
65280;BME280;51878;55.748;48.742;2022-09-09T10:26:41;99241.50;;;9.52;80.89
65280;BME280;51878;55.748;48.742;2022-09-09T10:34:55;99322.13;;;9.95;78.94
65280;BME280;51878;55.748;48.742;2022-09-09T10:42:43;99329.97;;;10.19;76.83
65280;BME280;51878;55.748;48.742;2022-09-09T10:45:44;99326.09;;;10.37;77.16
65280;BME280;51878;55.748;48.742;2022-09-09T10:56:58;99286.88;;;10.90;73.17
65280;BME280;51878;55.748;48.742;2022-09-09T10:59:30;99329.31;;;11.41;71.26
65280;BME280;51878;55.748;48.742;2022-09-09T11:04:57;99294.16;;;11.33;70.73
65280;BME280;51878;55.748;48.742;2022-09-09T11:07:44;99309.19;;;11.29;71.09
65280;BME280;51878;55.748;48.742;2022-09-09T11:10:24;99319.75;;;11.24;71.55
65280;BME280;51878;55.748;48.742;2022-09-09T11:13:00;99305.34;;;11.02;70.82
65280;BME280;51878;55.748;48.742;2022-09-09T11:15:36;99277.31;;;10.94;71.10
65280;BME280;51878;55.748;48.742;2022-09-09T11:18:13;99273.94;;;12.27;67.12
65280;BME280;51878;55.748;48.742;2022-09-09T11:20:43;99308.53;;;14.08;62.90
65280;BME280;51878;55.748;48.742;2022-09-09T11:23:15;99314.09;;;15.61;57.17
65280;BME280;51878;55.748;48.742;2022-09-09T11:25:49;99308.72;;;15.48;54.13
65280;BME280;51878;55.748;48.742;2022-09-09T11:31:41;99336.13;;;15.66;54.03
65280;BME280;51878;55.748;48.742;2022-09-09T11:34:51;99337.56;;;15.44;53.62
65280;BME280;51878;55.748;48.742;2022-09-09T11:37:37;99336.91;;;15.10;53.52
65280;BME280;51878;55.748;48.742;2022-09-09T11:40:21;99316.72;;;14.08;55.03
65280;BME280;51878;55.748;48.742;2022-09-09T11:43:21;99332.03;;;13.75;56.54
65280;BME280;51878;55.748;48.742;2022-09-09T11:45:52;99335.19;;;13.32;58.65
65280;BME280;51878;55.748;48.742;2022-09-09T11:48:32;99346.19;;;12.49;60.84
65280;BME280;51878;55.748;48.742;2022-09-09T11:51:07;99346.56;;;12.39;59.78
65280;BME280;51878;55.748;48.742;2022-09-09T11:53:51;99262.19;;;11.56;59.76
65280;BME280;51878;55.748;48.742;2022-09-09T11:56:29;99360.88;;;11.70;60.29
65280;BME280;51878;55.748;48.742;2022-09-09T11:59:06;99362.72;;;11.63;60.87
65280;BME280;51878;55.748;48.742;2022-09-09T12:01:41;99334.16;;;11.46;60.69
65280;BME280;51878;55.748;48.742;2022-09-09T12:04:17;99286.81;;;11.05;61.71
65280;BME280;51878;55.748;48.742;2022-09-09T12:07:01;99358.59;;;11.46;61.80
65280;BME280;51878;55.748;48.742;2022-09-09T12:09:44;99329.19;;;11.28;62.65
65280;BME280;51878;55.748;48.742;2022-09-09T12:15:01;99310.25;;;11.13;63.19
65280;BME280;51878;55.748;48.742;2022-09-09T12:17:32;99276.34;;;10.81;63.87
65280;BME280;51878;55.748;48.742;2022-09-09T12:20:21;99251.13;;;10.44;64.98
65280;BME280;51878;55.748;48.742;2022-09-09T12:28:40;99299.91;;;11.02;62.22
65280;BME280;51878;55.748;48.742;2022-09-09T12:31:32;99378.03;;;11.28;63.81
65280;BME280;51878;55.748;48.742;2022-09-09T12:36:46;99294.38;;;10.52;63.97
65280;BME280;51878;55.748;48.742;2022-09-09T12:39:27;99366.84;;;10.94;64.50
65280;BME280;51878;55.748;48.742;2022-09-09T12:41:56;99300.63;;;10.89;63.24
65280;BME280;51878;55.748;48.742;2022-09-09T12:44:25;99381.97;;;10.89;63.96
65280;BME280;51878;55.748;48.742;2022-09-09T12:46:52;99375.38;;;10.91;63.01
65280;BME280;51878;55.748;48.742;2022-09-09T12:52:08;99347.91;;;10.65;63.96
65280;BME280;51878;55.748;48.742;2022-09-09T12:54:45;99312.16;;;10.40;64.78
65280;BME280;51878;55.748;48.742;2022-09-09T12:57:16;99369.22;;;10.68;64.29
65280;BME280;51878;55.748;48.742;2022-09-09T12:59:44;99369.66;;;10.71;63.98
65280;BME280;51878;55.748;48.742;2022-09-09T13:02:22;99366.88;;;10.65;65.15
65280;BME280;51878;55.748;48.742;2022-09-09T13:04:50;99346.63;;;10.61;63.88
65280;BME280;51878;55.748;48.742;2022-09-09T13:07:19;99364.56;;;10.47;65.09
65280;BME280;51878;55.748;48.742;2022-09-09T13:09:47;99398.22;;;10.38;65.37
65280;BME280;51878;55.748;48.742;2022-09-09T13:12:21;99375.97;;;10.27;65.67
65280;BME280;51878;55.748;48.742;2022-09-09T13:14:53;99317.72;;;9.64;67.16
65280;BME280;51878;55.748;48.742;2022-09-09T13:17:24;99387.78;;;9.97;67.50
65280;BME280;51878;55.748;48.742;2022-09-09T13:19:52;99274.13;;;9.21;67.16
65280;BME280;51878;55.748;48.742;2022-09-09T13:22:21;99406.19;;;10.01;67.08
65280;BME280;51878;55.748;48.742;2022-09-09T13:24:59;99348.97;;;9.66;67.12
65280;BME280;51878;55.748;48.742;2022-09-09T13:27:33;99411.94;;;9.83;67.86
65280;BME280;51878;55.748;48.742;2022-09-09T13:30:39;99403.59;;;10.08;67.18
65280;BME280;51878;55.748;48.742;2022-09-09T13:35:56;99413.47;;;10.01;66.86
65280;BME280;51878;55.748;48.742;2022-09-09T13:38:25;99261.56;;;9.05;67.50
65280;BME280;51878;55.748;48.742;2022-09-09T13:43:35;99407.44;;;9.76;66.87
65280;BME280;51878;55.748;48.742;2022-09-09T13:54:09;99308.22;;;9.07;66.47
65280;BME280;51878;55.748;48.742;2022-09-09T13:56:38;99423.94;;;9.66;66.95
65280;BME280;51878;55.748;48.742;2022-09-09T13:59:11;99374.66;;;9.47;65.48
65280;BME280;51878;55.748;48.742;2022-09-09T14:01:38;99386.34;;;9.48;65.46
65280;BME280;51878;55.748;48.742;2022-09-09T14:04:05;99350.47;;;9.31;66.13
65280;BME280;51878;55.748;48.742;2022-09-09T14:06:37;99338.16;;;9.28;66.87
65280;BME280;51878;55.748;48.742;2022-09-09T14:09:12;99404.63;;;9.69;66.05
65280;BME280;51878;55.748;48.742;2022-09-09T14:11:39;99269.38;;;8.77;65.84
65280;BME280;51878;55.748;48.742;2022-09-09T14:14:07;99429.56;;;9.56;66.93
65280;BME280;51878;55.748;48.742;2022-09-09T14:16:38;99372.69;;;9.18;67.40
65280;BME280;51878;55.748;48.742;2022-09-09T14:19:05;99411.78;;;9.16;67.83
65280;BME280;51878;55.748;48.742;2022-09-09T14:21:32;99410.59;;;9.10;68.31
65280;BME280;51878;55.748;48.742;2022-09-09T14:23:59;99369.06;;;8.80;69.25
65280;BME280;51878;55.748;48.742;2022-09-09T14:26:26;99359.78;;;8.74;69.61
65280;BME280;51878;55.748;48.742;2022-09-09T14:28:57;99301.53;;;8.40;70.41
65280;BME280;51878;55.748;48.742;2022-09-09T14:31:28;99444.81;;;9.26;70.27
65280;BME280;51878;55.748;48.742;2022-09-09T14:33:55;99458.13;;;9.36;70.53
65280;BME280;51878;55.748;48.742;2022-09-09T14:36:22;99428.28;;;9.21;70.83
65280;BME280;51878;55.748;48.742;2022-09-09T14:38:51;99259.78;;;8.03;71.62
65280;BME280;51878;55.748;48.742;2022-09-09T14:41:20;99435.75;;;9.19;71.33
65280;BME280;51878;55.748;48.742;2022-09-09T14:43:49;99433.41;;;9.16;71.64
65280;BME280;51878;55.748;48.742;2022-09-09T14:46:18;99457.06;;;9.22;72.25
65280;BME280;51878;55.748;48.742;2022-09-09T14:48:46;99390.88;;;8.70;72.50
65280;BME280;51878;55.748;48.742;2022-09-09T14:51:20;99388.34;;;8.68;72.78
65280;BME280;51878;55.748;48.742;2022-09-09T14:53:51;99472.06;;;9.24;72.34
65280;BME280;51878;55.748;48.742;2022-09-09T14:56:25;99464.53;;;9.12;73.14
65280;BME280;51878;55.748;48.742;2022-09-09T14:58:55;99465.09;;;8.99;74.12
65280;BME280;51878;55.748;48.742;2022-09-09T15:01:23;99282.97;;;7.81;73.98
65280;BME280;51878;55.748;48.742;2022-09-09T15:03:55;99269.72;;;7.63;74.60
65280;BME280;51878;55.748;48.742;2022-09-09T15:06:26;99320.41;;;7.93;75.03
65280;BME280;51878;55.748;48.742;2022-09-09T15:08:53;99417.47;;;8.50;75.29
65280;BME280;51878;55.748;48.742;2022-09-09T15:11:21;99406.72;;;8.34;76.46
65280;BME280;51878;55.748;48.742;2022-09-09T15:13:52;99453.22;;;8.68;76.14
65280;BME280;51878;55.748;48.742;2022-09-09T15:16:24;99432.53;;;8.44;76.30
65280;BME280;51878;55.748;48.742;2022-09-09T15:18:55;99459.13;;;8.64;76.11
65280;BME280;51878;55.748;48.742;2022-09-09T15:21:26;99434.22;;;8.45;76.30
65280;BME280;51878;55.748;48.742;2022-09-09T15:23:54;99484.34;;;8.64;75.69
65280;BME280;51878;55.748;48.742;2022-09-09T15:26:22;99496.59;;;8.75;74.75
65280;BME280;51878;55.748;48.742;2022-09-09T15:28:50;99417.16;;;8.28;73.75
65280;BME280;51878;55.748;48.742;2022-09-09T15:31:23;99321.66;;;7.57;73.11
65280;BME280;51878;55.748;48.742;2022-09-09T15:33:58;99451.75;;;8.33;73.27
65280;BME280;51878;55.748;48.742;2022-09-09T15:36:29;99511.00;;;8.59;72.55